createdAt,value
2018-07-17T00:00:07.321Z,16.90
2018-07-17T00:02:36.567Z,16.90
2018-07-17T00:05:06.613Z,16.70
2018-07-17T00:07:36.212Z,16.70
2018-07-17T00:10:05.852Z,16.60
2018-07-17T00:12:34.477Z,16.60
2018-07-17T00:15:03.097Z,16.40
2018-07-17T00:17:32.128Z,16.40
2018-07-17T00:20:00.665Z,16.50
2018-07-17T00:22:29.841Z,16.50
2018-07-17T00:24:58.894Z,16.60
2018-07-17T00:27:27.439Z,16.60
2018-07-17T00:29:56.928Z,16.50
2018-07-17T00:32:25.494Z,16.50
2018-07-17T00:34:54.037Z,16.50
2018-07-17T00:39:50.818Z,16.40
2018-07-17T00:44:47.533Z,16.30
2018-07-17T00:47:16.090Z,16.20
2018-07-17T00:49:44.627Z,16.30
2018-07-17T00:54:41.946Z,16.40
2018-07-17T00:57:10.476Z,16.40
2018-07-17T00:59:39.030Z,16.40
2018-07-17T01:02:13.074Z,16.40
2018-07-17T01:07:20.615Z,16.20
2018-07-17T01:09:54.517Z,16.10
2018-07-17T01:12:22.262Z,16.00
2018-07-17T01:14:55.229Z,16.00
2018-07-17T01:17:24.469Z,16.00
2018-07-17T01:19:52.975Z,16.10
2018-07-17T01:22:21.530Z,16.10
2018-07-17T01:24:50.103Z,16.00
2018-07-17T01:29:46.849Z,16.10
2018-07-17T01:34:43.604Z,16.20
2018-07-17T01:37:12.176Z,16.20
2018-07-17T01:39:40.716Z,16.10
2018-07-17T01:42:09.270Z,16.10
2018-07-17T01:44:37.831Z,16.00
2018-07-17T01:47:06.369Z,16.10
2018-07-17T01:49:34.901Z,16.00
2018-07-17T01:52:03.485Z,16.00
2018-07-17T01:54:32.041Z,16.00
2018-07-17T01:57:00.578Z,15.90
2018-07-17T02:01:57.334Z,15.80
2018-07-17T02:06:54.107Z,15.80
2018-07-17T02:09:22.651Z,15.80
2018-07-17T02:11:51.181Z,15.70
2018-07-17T02:14:19.715Z,15.60
2018-07-17T02:16:48.257Z,15.60
2018-07-17T02:19:16.805Z,15.70
2018-07-17T02:24:13.611Z,15.70
2018-07-17T02:26:42.128Z,15.70
2018-07-17T02:29:10.699Z,15.60
2018-07-17T02:31:39.353Z,15.70
2018-07-17T02:34:07.970Z,15.60
2018-07-17T02:36:36.569Z,15.50
2018-07-17T02:39:06.742Z,15.50
2018-07-17T02:41:35.910Z,15.50
2018-07-17T02:44:04.512Z,15.50
2018-07-17T02:46:33.054Z,15.50
2018-07-17T02:49:01.638Z,15.40
2018-07-17T02:51:30.159Z,15.40
2018-07-17T02:53:58.793Z,15.50
2018-07-17T02:56:27.321Z,15.50
2018-07-17T03:01:24.214Z,15.40
2018-07-17T03:03:52.789Z,15.30
2018-07-17T03:06:21.353Z,15.30
2018-07-17T03:11:18.241Z,15.20
2018-07-17T03:13:46.801Z,15.10
2018-07-17T03:16:15.333Z,15.20
2018-07-17T03:18:43.928Z,15.10
2018-07-17T03:21:12.454Z,15.10
2018-07-17T03:23:41.054Z,15.20
2018-07-17T03:26:09.577Z,15.20
2018-07-17T03:28:38.133Z,15.10
2018-07-17T03:31:06.679Z,15.00
2018-07-17T03:36:03.449Z,15.20
2018-07-17T03:41:00.234Z,15.20
2018-07-17T03:43:28.761Z,15.20
2018-07-17T03:45:57.354Z,15.20
2018-07-17T03:48:25.886Z,15.20
2018-07-17T03:50:54.454Z,15.20
2018-07-17T03:53:22.980Z,15.20
2018-07-17T03:55:52.113Z,15.30
2018-07-17T03:58:20.648Z,15.20
2018-07-17T04:00:49.224Z,15.20
2018-07-17T04:03:17.761Z,15.30
2018-07-17T04:08:15.585Z,15.40
2018-07-17T04:10:44.195Z,15.30
2018-07-17T04:13:12.719Z,15.30
2018-07-17T04:18:09.459Z,15.30
2018-07-17T04:20:38.129Z,15.20
2018-07-17T04:23:07.124Z,15.30
2018-07-17T04:25:36.667Z,15.40
2018-07-17T04:30:33.481Z,15.50
2018-07-17T04:33:02.569Z,15.50
2018-07-17T04:35:31.652Z,15.50
2018-07-17T04:38:00.197Z,15.60
2018-07-17T04:42:56.951Z,15.70
2018-07-17T04:45:25.578Z,15.70
2018-07-17T04:47:54.140Z,15.70
2018-07-17T04:50:22.695Z,15.80
2018-07-17T04:52:51.219Z,15.90
2018-07-17T04:55:20.480Z,16.00
2018-07-17T04:57:49.121Z,16.10
2018-07-17T05:00:17.670Z,16.10
2018-07-17T05:05:14.445Z,16.20
2018-07-17T05:07:42.989Z,16.30
2018-07-17T05:10:11.530Z,16.40
2018-07-17T05:12:40.068Z,16.60
2018-07-17T05:15:08.657Z,16.70
2018-07-17T05:22:34.649Z,16.90
2018-07-17T05:25:06.021Z,16.90
2018-07-17T05:27:34.618Z,17.10
2018-07-17T05:30:03.261Z,17.30
2018-07-17T05:32:31.800Z,18.10
2018-07-17T05:35:00.904Z,19.70
2018-07-17T05:37:29.489Z,20.60
2018-07-17T05:39:58.363Z,21.00
2018-07-17T05:42:27.005Z,21.80
2018-07-17T05:44:55.631Z,22.10
2018-07-17T05:47:26.101Z,22.40
2018-07-17T05:49:54.708Z,23.30
2018-07-17T05:52:23.867Z,24.50
2018-07-17T05:54:53.050Z,24.90
2018-07-17T05:57:22.214Z,25.00
2018-07-17T05:59:50.899Z,25.20
2018-07-17T06:02:19.461Z,25.40
2018-07-17T06:04:48.717Z,25.60
2018-07-17T06:07:17.353Z,25.70
2018-07-17T06:09:45.968Z,25.90
2018-07-17T06:12:14.555Z,25.50
2018-07-17T06:14:43.198Z,25.00
2018-07-17T06:17:11.945Z,24.40
2018-07-17T06:19:40.514Z,24.60
2018-07-17T06:22:09.320Z,24.50
2018-07-17T06:24:38.473Z,24.80
2018-07-17T06:27:07.133Z,24.60
2018-07-17T06:32:04.018Z,24.00
2018-07-17T06:34:32.619Z,23.60
2018-07-17T06:37:01.189Z,23.20
2018-07-17T06:39:29.756Z,23.00
2018-07-17T06:44:27.410Z,23.10
2018-07-17T06:46:58.856Z,23.20
2018-07-17T06:49:27.466Z,23.40
2018-07-17T06:51:56.757Z,23.50
2018-07-17T06:54:25.332Z,23.60
2018-07-17T06:56:54.298Z,23.50
2018-07-17T06:59:24.196Z,23.60
2018-07-17T07:01:52.781Z,23.60
2018-07-17T07:04:21.401Z,23.60
2018-07-17T07:06:50.017Z,23.80
2018-07-17T07:11:46.979Z,23.70
2018-07-17T07:16:43.794Z,24.00
2018-07-17T07:19:12.361Z,24.10
2018-07-17T07:21:40.949Z,24.00
2018-07-17T07:24:09.604Z,24.00
2018-07-17T07:29:08.340Z,24.10
2018-07-17T07:31:36.941Z,24.10
2018-07-17T07:34:05.727Z,24.20
2018-07-17T07:36:35.268Z,24.20
2018-07-17T07:39:06.070Z,24.40
2018-07-17T07:41:34.740Z,24.70
2018-07-17T07:44:03.386Z,24.80
2018-07-17T07:49:00.217Z,24.80
2018-07-17T07:51:29.124Z,24.70
2018-07-17T07:53:57.665Z,24.90
2018-07-17T07:56:26.498Z,25.10
2018-07-17T07:59:00.881Z,25.30
2018-07-17T08:04:00.594Z,25.50
2018-07-17T08:08:57.253Z,25.60
2018-07-17T08:11:25.990Z,25.60
2018-07-17T08:13:54.766Z,25.70
2018-07-17T08:18:53.481Z,25.90
2018-07-17T08:21:22.409Z,25.90
2018-07-17T08:23:51.892Z,25.90
2018-07-17T08:26:20.459Z,26.00
2018-07-17T08:28:49.047Z,26.10
2018-07-17T08:31:18.142Z,26.10
2018-07-17T08:33:47.225Z,26.20
2018-07-17T08:36:15.806Z,26.30
2018-07-17T08:38:45.161Z,26.40
2018-07-17T08:41:14.369Z,26.50
2018-07-17T08:43:47.266Z,26.40
2018-07-17T08:46:15.869Z,26.60
2018-07-17T08:48:45.055Z,26.70
2018-07-17T08:51:13.677Z,26.90
2018-07-17T08:53:42.261Z,27.00
2018-07-17T08:56:11.621Z,27.00
2018-07-17T08:58:40.165Z,27.10
2018-07-17T09:01:09.225Z,27.10
2018-07-17T09:03:37.779Z,27.10
2018-07-17T09:06:07.517Z,27.20
2018-07-17T09:08:36.236Z,27.20
2018-07-17T09:11:04.879Z,27.20
2018-07-17T09:13:33.490Z,27.30
2018-07-17T09:16:05.624Z,27.30
2018-07-17T09:18:34.849Z,27.30
2018-07-17T09:21:03.838Z,27.40
2018-07-17T09:23:32.520Z,27.50
2018-07-17T09:26:01.096Z,27.60
2018-07-17T09:28:30.264Z,27.70
2018-07-17T09:30:59.616Z,27.80
2018-07-17T09:33:29.060Z,27.70
2018-07-17T09:35:57.775Z,27.70
2018-07-17T09:38:26.378Z,27.60
2018-07-17T09:40:55.065Z,27.50
2018-07-17T09:43:23.749Z,27.60
2018-07-17T09:45:52.309Z,27.80
2018-07-17T09:48:21.612Z,28.00
2018-07-17T09:50:50.197Z,28.10
2018-07-17T09:53:19.389Z,28.00
2018-07-17T09:55:48.481Z,28.10
2018-07-17T10:00:51.283Z,28.00
2018-07-17T10:03:19.868Z,28.00
2018-07-17T10:05:48.409Z,28.10
2018-07-17T10:08:16.975Z,28.00
2018-07-17T10:10:45.600Z,27.90
2018-07-17T10:15:42.516Z,27.90
2018-07-17T10:18:13.308Z,28.00
2018-07-17T10:23:10.813Z,28.20
2018-07-17T10:25:39.394Z,28.30
2018-07-17T10:28:07.998Z,28.40
2018-07-17T10:30:36.580Z,28.60
2018-07-17T10:33:05.899Z,28.60
2018-07-17T10:35:34.662Z,28.60
2018-07-17T10:38:03.383Z,28.70
2018-07-17T10:40:31.965Z,28.80
2018-07-17T10:43:00.535Z,28.90
2018-07-17T10:45:29.069Z,28.90
2018-07-17T10:50:26.577Z,29.00
2018-07-17T10:52:55.117Z,29.20
2018-07-17T10:55:23.767Z,29.40
2018-07-17T10:57:53.715Z,29.50
2018-07-17T11:00:22.371Z,29.70
2018-07-17T11:02:55.942Z,29.70
2018-07-17T11:05:26.042Z,29.90
2018-07-17T11:07:54.649Z,30.00
2018-07-17T11:10:23.942Z,29.90
2018-07-17T11:12:55.695Z,29.90
2018-07-17T11:15:24.409Z,30.10
2018-07-17T11:17:52.993Z,30.30
2018-07-17T11:20:21.545Z,30.60
2018-07-17T11:27:46.569Z,30.40
2018-07-17T11:32:43.822Z,30.40
2018-07-17T11:35:12.544Z,30.00
2018-07-17T11:37:41.172Z,29.30
2018-07-17T11:40:10.633Z,28.70
2018-07-17T11:42:39.186Z,28.20
2018-07-17T11:45:07.733Z,27.90
2018-07-17T11:47:36.332Z,27.60
2018-07-17T11:50:06.198Z,27.30
2018-07-17T11:52:34.772Z,27.20
2018-07-17T11:57:31.589Z,26.30
2018-07-17T12:00:00.172Z,25.80
2018-07-17T12:02:28.773Z,25.50
2018-07-17T12:04:57.826Z,25.30
2018-07-17T12:07:27.887Z,24.80
2018-07-17T12:09:57.670Z,24.60
2018-07-17T12:12:26.262Z,24.60
2018-07-17T12:14:55.460Z,24.50
2018-07-17T12:17:24.085Z,24.60
2018-07-17T12:19:52.886Z,24.80
2018-07-17T12:22:21.368Z,24.90
2018-07-17T12:27:18.978Z,25.10
2018-07-17T12:29:48.598Z,25.20
2018-07-17T12:32:17.154Z,25.40
2018-07-17T12:34:47.128Z,25.70
2018-07-17T12:37:16.781Z,26.10
2018-07-17T12:39:45.724Z,26.70
2018-07-17T12:42:14.738Z,27.30
2018-07-17T12:44:46.265Z,27.70
2018-07-17T12:47:15.365Z,28.10
2018-07-17T12:49:44.989Z,28.40
2018-07-17T12:52:13.633Z,28.50
2018-07-17T12:54:42.424Z,28.80
2018-07-17T12:57:10.978Z,28.90
2018-07-17T13:04:37.093Z,28.80
2018-07-17T13:07:05.717Z,28.80
2018-07-17T13:12:04.645Z,28.90
2018-07-17T13:14:33.269Z,28.90
2018-07-17T13:17:02.369Z,29.00
2018-07-17T13:19:31.340Z,29.10
2018-07-17T13:21:59.927Z,29.10
2018-07-17T13:24:28.748Z,29.00
2018-07-17T13:26:57.357Z,29.00
2018-07-17T13:31:54.147Z,29.20
2018-07-17T13:34:22.734Z,29.00
2018-07-17T13:36:51.314Z,29.10
2018-07-17T13:39:20.063Z,29.00
2018-07-17T13:41:53.384Z,28.90
2018-07-17T13:44:22.273Z,28.80
2018-07-17T13:46:50.940Z,28.90
2018-07-17T13:49:19.530Z,29.00
2018-07-17T13:54:16.834Z,29.00
2018-07-17T13:56:45.515Z,29.20
2018-07-17T13:59:15.535Z,29.10
2018-07-17T14:01:44.174Z,29.10
2018-07-17T14:04:12.891Z,29.00
2018-07-17T14:09:10.753Z,29.10
2018-07-17T14:11:39.625Z,29.00
2018-07-17T14:14:08.799Z,28.90
2018-07-17T14:16:37.671Z,28.70
2018-07-17T14:19:06.617Z,28.70
2018-07-17T14:21:35.314Z,28.50
2018-07-17T14:24:04.007Z,28.10
2018-07-17T14:26:33.198Z,27.50
2018-07-17T14:29:01.769Z,27.00
2018-07-17T14:31:30.365Z,26.70
2018-07-17T14:33:59.706Z,26.30
2018-07-17T14:36:28.884Z,26.10
2018-07-17T14:41:25.685Z,26.10
2018-07-17T14:43:54.909Z,26.50
2018-07-17T14:46:23.457Z,26.70
2018-07-17T14:48:52.549Z,26.60
2018-07-17T14:51:21.685Z,26.50
2018-07-17T14:53:50.986Z,26.70
2018-07-17T14:56:20.335Z,26.60
2018-07-17T14:58:48.915Z,26.50
2018-07-17T15:06:13.865Z,26.00
2018-07-17T15:08:42.462Z,25.30
2018-07-17T15:11:11.058Z,25.20
2018-07-17T15:13:39.657Z,25.00
2018-07-17T15:16:08.824Z,24.90
2018-07-17T15:18:37.894Z,24.70
2018-07-17T15:23:34.672Z,24.50
2018-07-17T15:26:05.056Z,24.30
2018-07-17T15:28:33.660Z,24.60
2018-07-17T15:33:31.013Z,25.60
2018-07-17T15:36:00.183Z,26.20
2018-07-17T15:38:29.314Z,26.50
2018-07-17T15:40:57.837Z,26.70
2018-07-17T15:43:27.608Z,26.90
2018-07-17T15:45:56.205Z,27.00
2018-07-17T15:48:24.751Z,27.10
2018-07-17T15:50:54.069Z,26.90
2018-07-17T15:53:22.641Z,27.10
2018-07-17T15:55:51.790Z,27.20
2018-07-17T16:00:49.263Z,27.20
2018-07-17T16:05:46.077Z,27.30
2018-07-17T16:08:14.641Z,27.30
2018-07-17T16:10:43.854Z,27.10
2018-07-17T16:13:12.392Z,27.10
2018-07-17T16:15:41.570Z,27.10
2018-07-17T16:18:10.717Z,27.20
2018-07-17T16:20:39.314Z,27.30
2018-07-17T16:23:08.578Z,27.20
2018-07-17T16:25:37.154Z,27.10
2018-07-17T16:28:05.973Z,26.50
2018-07-17T16:30:34.555Z,25.90
2018-07-17T16:33:03.102Z,25.40
2018-07-17T16:37:59.866Z,24.20
2018-07-17T16:40:29.673Z,23.30
2018-07-17T16:45:26.456Z,22.60
2018-07-17T16:47:55.109Z,22.40
2018-07-17T16:50:23.657Z,22.40
2018-07-17T16:52:52.184Z,22.40
2018-07-17T16:57:48.974Z,22.30
2018-07-17T17:00:17.534Z,22.50
2018-07-17T17:05:15.176Z,22.80
2018-07-17T17:07:43.714Z,23.00
2018-07-17T17:10:12.286Z,23.10
2018-07-17T17:15:09.087Z,23.20
2018-07-17T17:17:37.624Z,23.30
2018-07-17T17:22:34.470Z,23.30
2018-07-17T17:25:03.086Z,23.10
2018-07-17T17:27:31.645Z,22.90
2018-07-17T17:30:01.222Z,22.80
2018-07-17T17:32:29.782Z,22.90
2018-07-17T17:34:58.483Z,22.80
2018-07-17T17:37:27.039Z,22.70
2018-07-17T17:39:55.746Z,22.60
2018-07-17T17:42:24.264Z,22.50
2018-07-17T17:44:55.314Z,22.40
2018-07-17T17:47:24.518Z,22.50
2018-07-17T17:49:53.101Z,22.50
2018-07-17T17:52:21.661Z,22.20
2018-07-17T17:54:50.340Z,22.00
2018-07-17T17:57:19.441Z,22.00
2018-07-17T17:59:48.041Z,22.00
2018-07-17T18:02:17.410Z,22.00
2018-07-17T18:04:46.009Z,21.90
2018-07-17T18:07:15.428Z,21.80
2018-07-17T18:09:43.977Z,21.80
2018-07-17T18:12:12.642Z,21.80
2018-07-17T18:14:41.676Z,21.80
2018-07-17T18:17:10.926Z,21.90
2018-07-17T18:19:39.550Z,22.00
2018-07-17T18:22:08.157Z,22.00
2018-07-17T18:24:36.815Z,21.80
2018-07-17T18:27:05.540Z,21.80
2018-07-17T18:29:34.825Z,21.70
2018-07-17T18:32:03.760Z,21.60
2018-07-17T18:37:01.677Z,21.50
2018-07-17T18:39:30.242Z,21.50
2018-07-17T18:41:58.814Z,21.30
2018-07-17T18:49:24.665Z,21.10
2018-07-17T18:54:21.945Z,20.90
2018-07-17T18:59:19.834Z,20.80
2018-07-17T19:04:16.609Z,20.70
2018-07-17T19:06:45.181Z,20.80
2018-07-17T19:09:14.325Z,20.70
2018-07-17T19:11:42.959Z,20.70
2018-07-17T19:14:11.501Z,20.60
2018-07-17T19:16:40.778Z,20.60
2018-07-17T19:19:09.343Z,20.50
2018-07-17T19:21:38.655Z,20.50
2018-07-17T19:24:07.247Z,20.40
2018-07-17T19:26:35.905Z,20.30
2018-07-17T19:31:32.737Z,20.10
2018-07-17T19:34:01.285Z,20.10
2018-07-17T19:36:30.688Z,20.10
2018-07-17T19:38:59.250Z,20.00
2018-07-17T19:41:27.852Z,20.00
2018-07-17T19:43:56.385Z,19.80
2018-07-17T19:46:24.970Z,19.80
2018-07-17T19:48:53.507Z,19.70
2018-07-17T19:51:22.053Z,19.60
2018-07-17T19:56:18.826Z,19.50
2018-07-17T20:01:15.606Z,19.50
2018-07-17T20:03:44.155Z,19.40
2018-07-17T20:08:40.965Z,19.30
2018-07-17T20:11:09.500Z,19.40
2018-07-17T20:13:38.021Z,19.30
2018-07-17T20:16:07.245Z,19.10
2018-07-17T20:18:35.797Z,19.20
2018-07-17T20:21:04.382Z,19.20
2018-07-17T20:23:32.925Z,19.10
2018-07-17T20:28:30.369Z,19.20
2018-07-17T20:30:59.681Z,19.10
2018-07-17T20:33:28.224Z,19.00
2018-07-17T20:35:57.042Z,19.00
2018-07-17T20:38:26.292Z,19.10
2018-07-17T20:40:55.560Z,18.90
2018-07-17T20:43:24.116Z,19.00
2018-07-17T20:45:52.673Z,18.90
2018-07-17T20:48:21.222Z,18.80
2018-07-17T20:50:50.312Z,18.70
2018-07-17T20:53:18.981Z,18.70
2018-07-17T20:55:47.507Z,18.70
2018-07-17T20:58:16.107Z,18.70
2018-07-17T21:00:45.133Z,18.70
2018-07-17T21:03:14.317Z,18.80
2018-07-17T21:05:42.878Z,18.90
2018-07-17T21:08:11.610Z,18.90
2018-07-17T21:10:40.148Z,19.00
2018-07-17T21:13:09.401Z,19.00
2018-07-17T21:15:37.945Z,19.10
2018-07-17T21:18:06.519Z,19.00
2018-07-17T21:20:35.606Z,18.90
2018-07-17T21:23:04.754Z,18.80
2018-07-17T21:25:33.986Z,18.70
2018-07-17T21:30:31.379Z,18.80
2018-07-17T21:32:59.993Z,18.70
2018-07-17T21:35:28.524Z,18.80
2018-07-17T21:40:25.282Z,18.70
2018-07-17T21:45:22.168Z,18.60
2018-07-17T21:47:51.308Z,18.50
2018-07-17T21:50:19.878Z,18.50
2018-07-17T21:52:49.177Z,18.50
2018-07-17T21:55:18.343Z,18.50
2018-07-17T21:57:47.542Z,18.40
2018-07-17T22:00:16.123Z,18.50
2018-07-17T22:05:12.849Z,18.40
2018-07-17T22:07:41.409Z,18.40
2018-07-17T22:10:10.556Z,18.40
2018-07-17T22:15:07.421Z,18.30
2018-07-17T22:20:05.168Z,18.40
2018-07-17T22:22:33.746Z,18.40
2018-07-17T22:25:03.125Z,18.40
2018-07-17T22:27:31.684Z,18.30
2018-07-17T22:30:00.217Z,18.20
2018-07-17T22:32:28.839Z,18.10
2018-07-17T22:37:25.598Z,18.10
2018-07-17T22:42:22.359Z,18.00
2018-07-17T22:47:19.109Z,18.00
2018-07-17T22:52:15.864Z,17.90
2018-07-17T22:54:44.962Z,17.90
2018-07-17T22:59:41.737Z,17.70
2018-07-17T23:04:38.617Z,17.60
2018-07-17T23:07:07.174Z,17.60
2018-07-17T23:12:04.014Z,17.60
2018-07-17T23:14:32.573Z,17.60
2018-07-17T23:17:01.150Z,17.60
2018-07-17T23:19:29.713Z,17.60
2018-07-17T23:21:58.911Z,17.60
2018-07-17T23:24:27.489Z,17.70
2018-07-17T23:26:56.042Z,17.70
2018-07-17T23:29:24.601Z,17.70
2018-07-17T23:31:53.161Z,17.70
2018-07-17T23:34:21.753Z,17.70
2018-07-17T23:36:50.310Z,17.70
2018-07-17T23:39:18.885Z,17.70
2018-07-17T23:44:15.645Z,17.60
2018-07-17T23:46:44.172Z,17.50
2018-07-17T23:49:18.210Z,17.50
2018-07-17T23:51:46.729Z,17.50
2018-07-17T23:54:15.305Z,17.60
2018-07-17T23:56:43.837Z,17.50
2018-07-17T23:59:12.383Z,17.40
